sensor_id;sensor_type;location;lat;lon;timestamp;temperature;humidity
22574;DHT22;11453;52.052;20.430;2022-08-21T00:01:58;24.00;94.80
22574;DHT22;11453;52.052;20.430;2022-08-21T00:04:23;24.00;94.90
22574;DHT22;11453;52.052;20.430;2022-08-21T00:06:51;24.00;94.90
22574;DHT22;11453;52.052;20.430;2022-08-21T00:09:19;24.00;94.90
22574;DHT22;11453;52.052;20.430;2022-08-21T00:11:45;24.00;95.10
22574;DHT22;11453;52.052;20.430;2022-08-21T00:14:12;24.00;95.10
22574;DHT22;11453;52.052;20.430;2022-08-21T00:16:38;23.90;95.10
22574;DHT22;11453;52.052;20.430;2022-08-21T00:19:05;23.90;95.00
22574;DHT22;11453;52.052;20.430;2022-08-21T00:21:32;23.90;94.90
22574;DHT22;11453;52.052;20.430;2022-08-21T00:23:57;23.90;94.80
22574;DHT22;11453;52.052;20.430;2022-08-21T00:26:23;23.90;94.80
22574;DHT22;11453;52.052;20.430;2022-08-21T00:28:49;23.80;94.80
22574;DHT22;11453;52.052;20.430;2022-08-21T00:31:15;23.80;94.80
22574;DHT22;11453;52.052;20.430;2022-08-21T00:33:42;23.80;94.80
22574;DHT22;11453;52.052;20.430;2022-08-21T00:36:08;23.80;94.80
22574;DHT22;11453;52.052;20.430;2022-08-21T00:38:33;23.80;94.90
22574;DHT22;11453;52.052;20.430;2022-08-21T00:41:02;23.70;95.00
22574;DHT22;11453;52.052;20.430;2022-08-21T00:43:31;23.70;95.00
22574;DHT22;11453;52.052;20.430;2022-08-21T00:45:58;23.70;95.10
22574;DHT22;11453;52.052;20.430;2022-08-21T00:48:24;23.60;95.10
22574;DHT22;11453;52.052;20.430;2022-08-21T00:50:57;23.60;95.20
22574;DHT22;11453;52.052;20.430;2022-08-21T00:53:25;23.60;95.30
22574;DHT22;11453;52.052;20.430;2022-08-21T00:55:52;23.50;95.40
22574;DHT22;11453;52.052;20.430;2022-08-21T00:58:18;23.50;95.50
22574;DHT22;11453;52.052;20.430;2022-08-21T01:00:47;23.40;95.50
22574;DHT22;11453;52.052;20.430;2022-08-21T01:03:15;23.40;95.70
22574;DHT22;11453;52.052;20.430;2022-08-21T01:05:42;23.40;95.80
22574;DHT22;11453;52.052;20.430;2022-08-21T01:08:08;23.30;95.80
22574;DHT22;11453;52.052;20.430;2022-08-21T01:10:35;23.30;96.00
22574;DHT22;11453;52.052;20.430;2022-08-21T01:13:03;23.30;96.10
22574;DHT22;11453;52.052;20.430;2022-08-21T01:15:35;23.20;96.20
22574;DHT22;11453;52.052;20.430;2022-08-21T01:18:03;23.20;96.30
22574;DHT22;11453;52.052;20.430;2022-08-21T01:20:30;23.10;96.40
22574;DHT22;11453;52.052;20.430;2022-08-21T01:22:55;23.10;96.50
22574;DHT22;11453;52.052;20.430;2022-08-21T01:25:21;23.10;96.70
22574;DHT22;11453;52.052;20.430;2022-08-21T01:27:47;23.00;96.70
22574;DHT22;11453;52.052;20.430;2022-08-21T01:30:16;23.00;96.80
22574;DHT22;11453;52.052;20.430;2022-08-21T01:32:43;23.00;96.90
22574;DHT22;11453;52.052;20.430;2022-08-21T01:35:11;23.00;96.90
22574;DHT22;11453;52.052;20.430;2022-08-21T01:37:37;23.00;96.90
22574;DHT22;11453;52.052;20.430;2022-08-21T01:40:04;23.00;96.90
22574;DHT22;11453;52.052;20.430;2022-08-21T01:42:30;23.00;96.80
22574;DHT22;11453;52.052;20.430;2022-08-21T01:44:55;23.00;96.80
22574;DHT22;11453;52.052;20.430;2022-08-21T01:47:22;22.90;96.70
22574;DHT22;11453;52.052;20.430;2022-08-21T01:49:48;22.90;96.80
22574;DHT22;11453;52.052;20.430;2022-08-21T01:52:13;22.90;96.70
22574;DHT22;11453;52.052;20.430;2022-08-21T01:54:39;22.90;96.70
22574;DHT22;11453;52.052;20.430;2022-08-21T01:57:06;22.80;96.70
22574;DHT22;11453;52.052;20.430;2022-08-21T01:59:32;22.80;96.70
22574;DHT22;11453;52.052;20.430;2022-08-21T02:01:58;22.80;96.80
22574;DHT22;11453;52.052;20.430;2022-08-21T02:04:24;22.80;96.80
22574;DHT22;11453;52.052;20.430;2022-08-21T02:06:50;22.80;96.90
22574;DHT22;11453;52.052;20.430;2022-08-21T02:09:16;22.70;96.90
22574;DHT22;11453;52.052;20.430;2022-08-21T02:11:42;22.70;96.90
22574;DHT22;11453;52.052;20.430;2022-08-21T02:14:09;22.70;96.90
22574;DHT22;11453;52.052;20.430;2022-08-21T02:16:36;22.70;97.00
22574;DHT22;11453;52.052;20.430;2022-08-21T02:19:02;22.70;97.10
22574;DHT22;11453;52.052;20.430;2022-08-21T02:21:28;22.60;97.10
22574;DHT22;11453;52.052;20.430;2022-08-21T02:23:54;22.60;97.20
22574;DHT22;11453;52.052;20.430;2022-08-21T02:26:19;22.60;97.30
22574;DHT22;11453;52.052;20.430;2022-08-21T02:28:45;22.50;97.30
22574;DHT22;11453;52.052;20.430;2022-08-21T02:31:11;22.50;97.40
22574;DHT22;11453;52.052;20.430;2022-08-21T02:33:36;22.50;97.40
22574;DHT22;11453;52.052;20.430;2022-08-21T02:36:03;22.50;97.50
22574;DHT22;11453;52.052;20.430;2022-08-21T02:38:30;22.50;97.60
22574;DHT22;11453;52.052;20.430;2022-08-21T02:40:58;22.50;97.60
22574;DHT22;11453;52.052;20.430;2022-08-21T02:43:25;22.40;97.70
22574;DHT22;11453;52.052;20.430;2022-08-21T02:45:52;22.40;97.70
22574;DHT22;11453;52.052;20.430;2022-08-21T02:48:21;22.40;97.80
22574;DHT22;11453;52.052;20.430;2022-08-21T02:50:53;22.40;97.90
22574;DHT22;11453;52.052;20.430;2022-08-21T02:53:19;22.30;98.00
22574;DHT22;11453;52.052;20.430;2022-08-21T02:55:46;22.30;98.10
22574;DHT22;11453;52.052;20.430;2022-08-21T02:58:14;22.30;98.20
22574;DHT22;11453;52.052;20.430;2022-08-21T03:00:40;22.30;98.30
22574;DHT22;11453;52.052;20.430;2022-08-21T03:03:07;22.20;98.30
22574;DHT22;11453;52.052;20.430;2022-08-21T03:05:34;22.20;98.40
22574;DHT22;11453;52.052;20.430;2022-08-21T03:08:02;22.20;98.60
22574;DHT22;11453;52.052;20.430;2022-08-21T03:10:29;22.10;98.70
22574;DHT22;11453;52.052;20.430;2022-08-21T03:12:56;22.10;98.80
22574;DHT22;11453;52.052;20.430;2022-08-21T03:15:23;22.10;98.90
22574;DHT22;11453;52.052;20.430;2022-08-21T03:17:49;22.00;98.90
22574;DHT22;11453;52.052;20.430;2022-08-21T03:20:19;22.00;99.10
22574;DHT22;11453;52.052;20.430;2022-08-21T03:22:48;22.00;99.20
22574;DHT22;11453;52.052;20.430;2022-08-21T03:25:14;21.90;99.30
22574;DHT22;11453;52.052;20.430;2022-08-21T03:27:40;21.90;99.40
22574;DHT22;11453;52.052;20.430;2022-08-21T03:30:07;21.90;99.50
22574;DHT22;11453;52.052;20.430;2022-08-21T03:32:34;21.90;99.50
22574;DHT22;11453;52.052;20.430;2022-08-21T03:35:00;21.90;99.60
22574;DHT22;11453;52.052;20.430;2022-08-21T03:37:27;21.90;99.70
22574;DHT22;11453;52.052;20.430;2022-08-21T03:39:53;21.90;99.70
22574;DHT22;11453;52.052;20.430;2022-08-21T03:42:18;21.90;99.70
22574;DHT22;11453;52.052;20.430;2022-08-21T03:44:44;21.90;99.70
22574;DHT22;11453;52.052;20.430;2022-08-21T03:47:10;21.90;99.70
22574;DHT22;11453;52.052;20.430;2022-08-21T03:49:36;21.90;99.70
22574;DHT22;11453;52.052;20.430;2022-08-21T03:52:02;21.90;99.70
22574;DHT22;11453;52.052;20.430;2022-08-21T03:54:28;21.90;99.70
22574;DHT22;11453;52.052;20.430;2022-08-21T03:56:53;21.90;99.70
22574;DHT22;11453;52.052;20.430;2022-08-21T03:59:20;21.90;99.70
22574;DHT22;11453;52.052;20.430;2022-08-21T04:01:59;21.90;99.80
22574;DHT22;11453;52.052;20.430;2022-08-21T04:04:27;21.90;99.80
22574;DHT22;11453;52.052;20.430;2022-08-21T04:06:52;21.90;99.80
22574;DHT22;11453;52.052;20.430;2022-08-21T04:09:18;21.90;99.90
22574;DHT22;11453;52.052;20.430;2022-08-21T04:11:45;21.90;99.90
22574;DHT22;11453;52.052;20.430;2022-08-21T04:14:12;21.90;99.90
22574;DHT22;11453;52.052;20.430;2022-08-21T04:16:40;21.90;99.90
22574;DHT22;11453;52.052;20.430;2022-08-21T04:19:07;21.90;99.90
22574;DHT22;11453;52.052;20.430;2022-08-21T04:21:33;21.90;99.90
22574;DHT22;11453;52.052;20.430;2022-08-21T04:23:59;21.90;99.90
22574;DHT22;11453;52.052;20.430;2022-08-21T04:26:25;21.90;99.90
22574;DHT22;11453;52.052;20.430;2022-08-21T04:28:51;21.90;99.90
22574;DHT22;11453;52.052;20.430;2022-08-21T04:31:18;21.90;99.90
22574;DHT22;11453;52.052;20.430;2022-08-21T04:33:43;21.90;99.90
22574;DHT22;11453;52.052;20.430;2022-08-21T04:36:10;21.90;99.90
22574;DHT22;11453;52.052;20.430;2022-08-21T04:38:36;22.00;99.90
22574;DHT22;11453;52.052;20.430;2022-08-21T04:41:02;22.00;99.90
22574;DHT22;11453;52.052;20.430;2022-08-21T04:43:28;22.00;99.90
22574;DHT22;11453;52.052;20.430;2022-08-21T04:45:54;22.10;99.90
22574;DHT22;11453;52.052;20.430;2022-08-21T04:48:22;22.10;99.90
22574;DHT22;11453;52.052;20.430;2022-08-21T04:53:36;22.20;99.80
22574;DHT22;11453;52.052;20.430;2022-08-21T04:56:08;22.20;99.80
22574;DHT22;11453;52.052;20.430;2022-08-21T04:58:36;22.20;99.80
22574;DHT22;11453;52.052;20.430;2022-08-21T05:01:05;22.20;99.90
22574;DHT22;11453;52.052;20.430;2022-08-21T05:03:33;22.20;99.90
22574;DHT22;11453;52.052;20.430;2022-08-21T05:06:00;22.30;99.90
22574;DHT22;11453;52.052;20.430;2022-08-21T05:08:26;22.40;99.90
22574;DHT22;11453;52.052;20.430;2022-08-21T05:10:53;22.40;99.90
22574;DHT22;11453;52.052;20.430;2022-08-21T05:13:19;22.40;99.80
22574;DHT22;11453;52.052;20.430;2022-08-21T05:15:45;22.40;99.60
22574;DHT22;11453;52.052;20.430;2022-08-21T05:18:11;22.50;99.60
22574;DHT22;11453;52.052;20.430;2022-08-21T05:20:37;22.50;99.40
22574;DHT22;11453;52.052;20.430;2022-08-21T05:23:11;22.50;99.40
22574;DHT22;11453;52.052;20.430;2022-08-21T05:25:37;22.50;99.40
22574;DHT22;11453;52.052;20.430;2022-08-21T05:28:03;22.60;99.40
22574;DHT22;11453;52.052;20.430;2022-08-21T05:30:29;22.60;99.50
22574;DHT22;11453;52.052;20.430;2022-08-21T05:32:59;22.60;99.50
22574;DHT22;11453;52.052;20.430;2022-08-21T05:35:26;22.60;99.50
22574;DHT22;11453;52.052;20.430;2022-08-21T05:37:52;22.70;99.50
22574;DHT22;11453;52.052;20.430;2022-08-21T05:40:18;22.70;99.50
22574;DHT22;11453;52.052;20.430;2022-08-21T05:42:44;22.70;99.50
22574;DHT22;11453;52.052;20.430;2022-08-21T05:45:10;22.70;99.50
22574;DHT22;11453;52.052;20.430;2022-08-21T05:47:36;22.70;99.60
22574;DHT22;11453;52.052;20.430;2022-08-21T05:50:03;22.70;99.60
22574;DHT22;11453;52.052;20.430;2022-08-21T05:52:28;22.80;99.60
22574;DHT22;11453;52.052;20.430;2022-08-21T05:54:54;22.70;99.60
22574;DHT22;11453;52.052;20.430;2022-08-21T05:57:20;22.80;99.60
22574;DHT22;11453;52.052;20.430;2022-08-21T05:59:47;22.80;99.70
22574;DHT22;11453;52.052;20.430;2022-08-21T06:02:12;22.80;99.70
22574;DHT22;11453;52.052;20.430;2022-08-21T06:04:39;22.80;99.70
22574;DHT22;11453;52.052;20.430;2022-08-21T06:07:05;22.90;99.60
22574;DHT22;11453;52.052;20.430;2022-08-21T06:09:31;23.00;99.50
22574;DHT22;11453;52.052;20.430;2022-08-21T06:11:57;23.00;99.40
22574;DHT22;11453;52.052;20.430;2022-08-21T06:14:23;23.10;99.40
22574;DHT22;11453;52.052;20.430;2022-08-21T06:16:48;23.20;99.30
22574;DHT22;11453;52.052;20.430;2022-08-21T06:19:14;23.20;99.10
22574;DHT22;11453;52.052;20.430;2022-08-21T06:21:40;23.30;99.00
22574;DHT22;11453;52.052;20.430;2022-08-21T06:24:05;23.30;99.00
22574;DHT22;11453;52.052;20.430;2022-08-21T06:26:32;23.40;99.00
22574;DHT22;11453;52.052;20.430;2022-08-21T06:28:58;23.40;98.90
22574;DHT22;11453;52.052;20.430;2022-08-21T06:31:26;23.40;98.90
22574;DHT22;11453;52.052;20.430;2022-08-21T06:33:52;23.50;98.90
22574;DHT22;11453;52.052;20.430;2022-08-21T06:36:18;23.50;98.60
22574;DHT22;11453;52.052;20.430;2022-08-21T06:38:46;23.60;98.50
22574;DHT22;11453;52.052;20.430;2022-08-21T06:41:11;23.60;98.50
22574;DHT22;11453;52.052;20.430;2022-08-21T06:43:37;23.80;98.50
22574;DHT22;11453;52.052;20.430;2022-08-21T06:46:03;23.80;98.40
22574;DHT22;11453;52.052;20.430;2022-08-21T06:48:29;23.90;98.10
22574;DHT22;11453;52.052;20.430;2022-08-21T06:50:59;24.00;97.90
22574;DHT22;11453;52.052;20.430;2022-08-21T06:53:25;24.10;97.60
22574;DHT22;11453;52.052;20.430;2022-08-21T06:55:50;24.20;97.50
22574;DHT22;11453;52.052;20.430;2022-08-21T06:58:16;24.30;97.40
22574;DHT22;11453;52.052;20.430;2022-08-21T07:00:46;24.40;97.10
22574;DHT22;11453;52.052;20.430;2022-08-21T07:03:31;24.50;96.90
22574;DHT22;11453;52.052;20.430;2022-08-21T07:05:57;24.50;96.70
22574;DHT22;11453;52.052;20.430;2022-08-21T07:08:24;24.60;96.40
22574;DHT22;11453;52.052;20.430;2022-08-21T07:10:51;24.60;96.30
22574;DHT22;11453;52.052;20.430;2022-08-21T07:13:17;24.60;96.40
22574;DHT22;11453;52.052;20.430;2022-08-21T07:15:43;24.70;96.40
22574;DHT22;11453;52.052;20.430;2022-08-21T07:18:10;24.80;96.50
22574;DHT22;11453;52.052;20.430;2022-08-21T07:20:37;24.80;96.50
22574;DHT22;11453;52.052;20.430;2022-08-21T07:23:06;24.90;96.30
22574;DHT22;11453;52.052;20.430;2022-08-21T07:25:32;25.00;95.90
22574;DHT22;11453;52.052;20.430;2022-08-21T07:27:58;25.00;95.70
22574;DHT22;11453;52.052;20.430;2022-08-21T07:30:24;25.00;95.70
22574;DHT22;11453;52.052;20.430;2022-08-21T07:32:50;25.10;95.80
22574;DHT22;11453;52.052;20.430;2022-08-21T07:35:17;25.20;95.80
22574;DHT22;11453;52.052;20.430;2022-08-21T07:37:42;25.20;95.70
22574;DHT22;11453;52.052;20.430;2022-08-21T07:40:08;25.30;95.40
22574;DHT22;11453;52.052;20.430;2022-08-21T07:42:34;25.30;95.30
22574;DHT22;11453;52.052;20.430;2022-08-21T07:45:04;25.40;95.50
22574;DHT22;11453;52.052;20.430;2022-08-21T07:47:30;25.40;95.40
22574;DHT22;11453;52.052;20.430;2022-08-21T07:49:56;25.50;95.40
22574;DHT22;11453;52.052;20.430;2022-08-21T07:52:21;25.50;95.20
22574;DHT22;11453;52.052;20.430;2022-08-21T07:54:47;25.50;95.30
22574;DHT22;11453;52.052;20.430;2022-08-21T07:57:13;25.60;95.40
22574;DHT22;11453;52.052;20.430;2022-08-21T07:59:38;25.70;95.30
22574;DHT22;11453;52.052;20.430;2022-08-21T08:02:04;25.80;95.10
22574;DHT22;11453;52.052;20.430;2022-08-21T08:04:29;25.90;95.00
22574;DHT22;11453;52.052;20.430;2022-08-21T08:06:55;26.10;94.90
22574;DHT22;11453;52.052;20.430;2022-08-21T08:09:21;26.10;94.70
22574;DHT22;11453;52.052;20.430;2022-08-21T08:11:46;26.20;94.60
22574;DHT22;11453;52.052;20.430;2022-08-21T08:14:12;26.30;94.50
22574;DHT22;11453;52.052;20.430;2022-08-21T08:16:38;26.40;94.10
22574;DHT22;11453;52.052;20.430;2022-08-21T08:19:03;26.50;94.10
22574;DHT22;11453;52.052;20.430;2022-08-21T08:21:29;26.60;93.90
22574;DHT22;11453;52.052;20.430;2022-08-21T08:23:55;26.70;94.00
22574;DHT22;11453;52.052;20.430;2022-08-21T08:26:21;26.80;93.60
22574;DHT22;11453;52.052;20.430;2022-08-21T08:28:46;26.90;93.30
22574;DHT22;11453;52.052;20.430;2022-08-21T08:31:13;27.00;93.30
22574;DHT22;11453;52.052;20.430;2022-08-21T08:33:39;27.10;93.20
22574;DHT22;11453;52.052;20.430;2022-08-21T08:36:05;27.10;93.20
22574;DHT22;11453;52.052;20.430;2022-08-21T08:38:31;27.20;93.20
22574;DHT22;11453;52.052;20.430;2022-08-21T08:41:18;27.20;93.10
22574;DHT22;11453;52.052;20.430;2022-08-21T08:44:01;27.30;93.00
22574;DHT22;11453;52.052;20.430;2022-08-21T08:49:30;27.50;92.70
22574;DHT22;11453;52.052;20.430;2022-08-21T08:52:04;27.60;92.30
22574;DHT22;11453;52.052;20.430;2022-08-21T08:54:33;27.70;91.40
22574;DHT22;11453;52.052;20.430;2022-08-21T08:57:01;27.70;91.10
22574;DHT22;11453;52.052;20.430;2022-08-21T08:59:44;27.80;90.90
22574;DHT22;11453;52.052;20.430;2022-08-21T09:02:13;27.90;90.70
22574;DHT22;11453;52.052;20.430;2022-08-21T09:04:39;28.00;90.20
22574;DHT22;11453;52.052;20.430;2022-08-21T09:18:12;28.20;88.60
22574;DHT22;11453;52.052;20.430;2022-08-21T09:23:55;28.40;85.50
22574;DHT22;11453;52.052;20.430;2022-08-21T09:26:27;28.50;85.70
22574;DHT22;11453;52.052;20.430;2022-08-21T09:28:57;28.60;84.80
22574;DHT22;11453;52.052;20.430;2022-08-21T09:31:32;28.80;84.60
22574;DHT22;11453;52.052;20.430;2022-08-21T09:34:00;28.90;84.00
22574;DHT22;11453;52.052;20.430;2022-08-21T09:36:47;29.10;83.70
22574;DHT22;11453;52.052;20.430;2022-08-21T09:39:27;29.30;82.90
22574;DHT22;11453;52.052;20.430;2022-08-21T09:42:53;29.40;80.90
22574;DHT22;11453;52.052;20.430;2022-08-21T09:45:15;29.60;79.50
22574;DHT22;11453;52.052;20.430;2022-08-21T09:47:42;29.70;78.10
22574;DHT22;11453;52.052;20.430;2022-08-21T09:50:15;29.70;77.30
22574;DHT22;11453;52.052;20.430;2022-08-21T09:52:53;29.80;76.30
22574;DHT22;11453;52.052;20.430;2022-08-21T09:58:18;30.20;75.10
22574;DHT22;11453;52.052;20.430;2022-08-21T10:00:44;30.30;74.80
22574;DHT22;11453;52.052;20.430;2022-08-21T10:03:15;30.40;73.60
22574;DHT22;11453;52.052;20.430;2022-08-21T10:06:02;30.50;73.30
22574;DHT22;11453;52.052;20.430;2022-08-21T10:08:32;30.60;72.90
22574;DHT22;11453;52.052;20.430;2022-08-21T10:11:09;30.60;72.50
22574;DHT22;11453;52.052;20.430;2022-08-21T10:19:06;30.50;71.60
22574;DHT22;11453;52.052;20.430;2022-08-21T10:21:43;30.40;71.70
22574;DHT22;11453;52.052;20.430;2022-08-21T10:26:57;30.30;71.50
22574;DHT22;11453;52.052;20.430;2022-08-21T10:34:53;30.20;70.90
22574;DHT22;11453;52.052;20.430;2022-08-21T10:46:17;30.40;71.20
22574;DHT22;11453;52.052;20.430;2022-08-21T10:48:55;30.50;70.60
22574;DHT22;11453;52.052;20.430;2022-08-21T10:51:39;30.70;70.20
22574;DHT22;11453;52.052;20.430;2022-08-21T10:54:27;30.90;69.50
22574;DHT22;11453;52.052;20.430;2022-08-21T10:57:02;31.00;69.10
22574;DHT22;11453;52.052;20.430;2022-08-21T10:59:34;31.00;68.70
22574;DHT22;11453;52.052;20.430;2022-08-21T11:02:24;30.90;68.20
22574;DHT22;11453;52.052;20.430;2022-08-21T11:05:02;30.90;68.40
22574;DHT22;11453;52.052;20.430;2022-08-21T11:07:46;30.80;68.80
22574;DHT22;11453;52.052;20.430;2022-08-21T11:13:03;30.60;69.00
22574;DHT22;11453;52.052;20.430;2022-08-21T11:15:33;30.50;69.40
22574;DHT22;11453;52.052;20.430;2022-08-21T11:23:25;30.40;70.30
22574;DHT22;11453;52.052;20.430;2022-08-21T11:26:00;30.60;70.30
22574;DHT22;11453;52.052;20.430;2022-08-21T11:28:38;30.80;68.80
22574;DHT22;11453;52.052;20.430;2022-08-21T11:31:24;30.90;67.70
22574;DHT22;11453;52.052;20.430;2022-08-21T11:34:12;31.10;67.10
22574;DHT22;11453;52.052;20.430;2022-08-21T11:39:33;31.40;65.90
22574;DHT22;11453;52.052;20.430;2022-08-21T11:50:22;32.30;63.40
22574;DHT22;11453;52.052;20.430;2022-08-21T11:52:53;32.70;62.50
22574;DHT22;11453;52.052;20.430;2022-08-21T11:55:26;33.20;61.00
22574;DHT22;11453;52.052;20.430;2022-08-21T11:57:55;33.60;59.70
22574;DHT22;11453;52.052;20.430;2022-08-21T12:03:38;34.30;58.00
22574;DHT22;11453;52.052;20.430;2022-08-21T12:06:09;34.80;57.10
22574;DHT22;11453;52.052;20.430;2022-08-21T12:08:40;35.00;56.20
22574;DHT22;11453;52.052;20.430;2022-08-21T12:16:46;35.70;54.00
22574;DHT22;11453;52.052;20.430;2022-08-21T12:22:12;36.10;52.90
22574;DHT22;11453;52.052;20.430;2022-08-21T12:24:39;36.20;51.90
22574;DHT22;11453;52.052;20.430;2022-08-21T12:29:49;36.00;51.80
22574;DHT22;11453;52.052;20.430;2022-08-21T12:34:53;35.30;52.40
22574;DHT22;11453;52.052;20.430;2022-08-21T12:37:43;35.00;52.70
22574;DHT22;11453;52.052;20.430;2022-08-21T12:40:27;34.70;53.10
22574;DHT22;11453;52.052;20.430;2022-08-21T12:42:56;34.50;53.60
22574;DHT22;11453;52.052;20.430;2022-08-21T12:45:32;34.40;53.70
22574;DHT22;11453;52.052;20.430;2022-08-21T12:48:03;34.30;53.80
22574;DHT22;11453;52.052;20.430;2022-08-21T12:50:48;34.20;53.80
22574;DHT22;11453;52.052;20.430;2022-08-21T12:55:47;34.00;54.30
22574;DHT22;11453;52.052;20.430;2022-08-21T12:58:31;33.90;54.50
22574;DHT22;11453;52.052;20.430;2022-08-21T13:01:04;33.90;54.50
22574;DHT22;11453;52.052;20.430;2022-08-21T13:03:31;33.90;54.40
22574;DHT22;11453;52.052;20.430;2022-08-21T13:05:59;33.90;54.40
22574;DHT22;11453;52.052;20.430;2022-08-21T13:08:26;34.30;54.40
22574;DHT22;11453;52.052;20.430;2022-08-21T13:11:19;34.90;53.40
22574;DHT22;11453;52.052;20.430;2022-08-21T13:13:50;36.80;52.30
22574;DHT22;11453;52.052;20.430;2022-08-21T13:16:24;38.90;48.60
22574;DHT22;11453;52.052;20.430;2022-08-21T13:19:00;40.20;45.30
22574;DHT22;11453;52.052;20.430;2022-08-21T13:21:41;40.70;43.40
22574;DHT22;11453;52.052;20.430;2022-08-21T13:24:20;40.50;43.00
22574;DHT22;11453;52.052;20.430;2022-08-21T13:26:47;39.90;43.10
22574;DHT22;11453;52.052;20.430;2022-08-21T13:29:16;39.30;44.00
22574;DHT22;11453;52.052;20.430;2022-08-21T13:31:48;38.50;44.80
22574;DHT22;11453;52.052;20.430;2022-08-21T13:34:15;37.80;45.70
22574;DHT22;11453;52.052;20.430;2022-08-21T13:36:42;37.10;46.50
22574;DHT22;11453;52.052;20.430;2022-08-21T13:39:11;36.60;47.40
22574;DHT22;11453;52.052;20.430;2022-08-21T13:41:40;36.00;48.10
22574;DHT22;11453;52.052;20.430;2022-08-21T13:44:41;35.60;48.70
22574;DHT22;11453;52.052;20.430;2022-08-21T13:47:09;35.50;48.90
22574;DHT22;11453;52.052;20.430;2022-08-21T13:49:38;35.30;49.20
22574;DHT22;11453;52.052;20.430;2022-08-21T13:52:12;35.00;49.40
22574;DHT22;11453;52.052;20.430;2022-08-21T13:54:43;34.80;49.70
22574;DHT22;11453;52.052;20.430;2022-08-21T13:57:25;34.80;50.10
22574;DHT22;11453;52.052;20.430;2022-08-21T13:59:51;35.10;49.90
22574;DHT22;11453;52.052;20.430;2022-08-21T14:02:24;35.50;49.30
22574;DHT22;11453;52.052;20.430;2022-08-21T14:04:58;36.00;48.70
22574;DHT22;11453;52.052;20.430;2022-08-21T14:07:36;36.30;48.30
22574;DHT22;11453;52.052;20.430;2022-08-21T14:10:13;36.50;47.90
22574;DHT22;11453;52.052;20.430;2022-08-21T14:13:02;36.20;48.10
22574;DHT22;11453;52.052;20.430;2022-08-21T14:15:30;35.80;48.40
22574;DHT22;11453;52.052;20.430;2022-08-21T14:18:17;35.40;48.80
22574;DHT22;11453;52.052;20.430;2022-08-21T14:20:43;35.00;49.30
22574;DHT22;11453;52.052;20.430;2022-08-21T14:23:10;34.70;50.00
22574;DHT22;11453;52.052;20.430;2022-08-21T14:25:41;34.50;50.20
22574;DHT22;11453;52.052;20.430;2022-08-21T14:30:51;34.10;50.70
22574;DHT22;11453;52.052;20.430;2022-08-21T14:33:29;33.90;51.20
22574;DHT22;11453;52.052;20.430;2022-08-21T14:35:56;33.70;51.80
22574;DHT22;11453;52.052;20.430;2022-08-21T14:38:24;33.50;52.20
22574;DHT22;11453;52.052;20.430;2022-08-21T14:40:58;33.30;52.50
22574;DHT22;11453;52.052;20.430;2022-08-21T14:43:26;33.00;52.50
22574;DHT22;11453;52.052;20.430;2022-08-21T14:45:53;32.80;52.50
22574;DHT22;11453;52.052;20.430;2022-08-21T14:48:19;32.60;52.70
22574;DHT22;11453;52.052;20.430;2022-08-21T14:50:44;32.40;52.90
22574;DHT22;11453;52.052;20.430;2022-08-21T14:53:10;32.20;53.10
22574;DHT22;11453;52.052;20.430;2022-08-21T14:55:36;32.10;53.40
22574;DHT22;11453;52.052;20.430;2022-08-21T14:58:21;31.90;53.50
22574;DHT22;11453;52.052;20.430;2022-08-21T15:00:49;31.80;53.80
22574;DHT22;11453;52.052;20.430;2022-08-21T15:03:15;31.70;54.00
22574;DHT22;11453;52.052;20.430;2022-08-21T15:05:41;31.50;54.20
22574;DHT22;11453;52.052;20.430;2022-08-21T15:08:06;31.50;54.60
22574;DHT22;11453;52.052;20.430;2022-08-21T15:10:33;31.30;54.80
22574;DHT22;11453;52.052;20.430;2022-08-21T15:13:01;31.20;55.10
22574;DHT22;11453;52.052;20.430;2022-08-21T15:15:39;31.10;55.20
22574;DHT22;11453;52.052;20.430;2022-08-21T15:18:06;31.00;55.40
22574;DHT22;11453;52.052;20.430;2022-08-21T15:20:32;30.90;55.50
22574;DHT22;11453;52.052;20.430;2022-08-21T15:22:58;30.70;55.50
22574;DHT22;11453;52.052;20.430;2022-08-21T15:25:23;30.60;55.70
22574;DHT22;11453;52.052;20.430;2022-08-21T15:27:49;30.50;55.90
22574;DHT22;11453;52.052;20.430;2022-08-21T15:30:15;30.40;56.40
22574;DHT22;11453;52.052;20.430;2022-08-21T15:32:40;30.40;56.90
22574;DHT22;11453;52.052;20.430;2022-08-21T15:35:07;30.20;57.20
22574;DHT22;11453;52.052;20.430;2022-08-21T15:37:33;30.10;57.30
22574;DHT22;11453;52.052;20.430;2022-08-21T15:39:59;30.10;57.40
22574;DHT22;11453;52.052;20.430;2022-08-21T15:42:25;30.00;57.30
22574;DHT22;11453;52.052;20.430;2022-08-21T15:44:55;29.90;57.40
22574;DHT22;11453;52.052;20.430;2022-08-21T15:47:28;29.90;57.60
22574;DHT22;11453;52.052;20.430;2022-08-21T15:49:54;29.80;57.80
22574;DHT22;11453;52.052;20.430;2022-08-21T15:52:21;29.60;57.80
22574;DHT22;11453;52.052;20.430;2022-08-21T15:54:47;29.50;58.20
22574;DHT22;11453;52.052;20.430;2022-08-21T15:57:14;29.50;58.50
22574;DHT22;11453;52.052;20.430;2022-08-21T15:59:44;29.40;58.90
22574;DHT22;11453;52.052;20.430;2022-08-21T16:02:14;29.30;59.10
22574;DHT22;11453;52.052;20.430;2022-08-21T16:04:40;29.20;59.40
22574;DHT22;11453;52.052;20.430;2022-08-21T16:07:06;29.20;59.80
22574;DHT22;11453;52.052;20.430;2022-08-21T16:09:32;29.10;60.00
22574;DHT22;11453;52.052;20.430;2022-08-21T16:11:59;29.00;60.20
22574;DHT22;11453;52.052;20.430;2022-08-21T16:14:25;29.00;60.70
22574;DHT22;11453;52.052;20.430;2022-08-21T16:16:52;28.90;61.00
22574;DHT22;11453;52.052;20.430;2022-08-21T16:19:18;28.80;61.40
22574;DHT22;11453;52.052;20.430;2022-08-21T16:21:43;28.80;61.90
22574;DHT22;11453;52.052;20.430;2022-08-21T16:24:09;28.70;62.40
22574;DHT22;11453;52.052;20.430;2022-08-21T16:26:35;28.50;62.70
22574;DHT22;11453;52.052;20.430;2022-08-21T16:29:02;28.50;63.30
22574;DHT22;11453;52.052;20.430;2022-08-21T16:31:30;28.40;63.80
22574;DHT22;11453;52.052;20.430;2022-08-21T16:33:56;28.40;64.20
22574;DHT22;11453;52.052;20.430;2022-08-21T16:36:23;28.30;64.50
22574;DHT22;11453;52.052;20.430;2022-08-21T16:38:51;28.20;65.10
22574;DHT22;11453;52.052;20.430;2022-08-21T16:41:20;28.10;65.80
22574;DHT22;11453;52.052;20.430;2022-08-21T16:43:48;28.00;66.00
22574;DHT22;11453;52.052;20.430;2022-08-21T16:46:15;27.90;66.70
22574;DHT22;11453;52.052;20.430;2022-08-21T16:48:41;27.80;66.70
22574;DHT22;11453;52.052;20.430;2022-08-21T16:51:09;27.70;67.10
22574;DHT22;11453;52.052;20.430;2022-08-21T16:53:35;27.70;67.50